createdAt,value
2018-12-27T00:01:39.332Z,17.30
2018-12-27T00:04:07.904Z,22.40
2018-12-27T00:06:36.363Z,16.20
2018-12-27T00:09:07.013Z,20.40
2018-12-27T00:11:35.487Z,14.80
2018-12-27T00:14:04.021Z,14.50
2018-12-27T00:16:32.503Z,17.23
2018-12-27T00:19:01.022Z,15.23
2018-12-27T00:21:29.534Z,18.00
2018-12-27T00:23:58.041Z,20.43
2018-12-27T00:26:26.532Z,17.50
2018-12-27T00:28:55.063Z,16.65
2018-12-27T00:31:23.691Z,20.83
2018-12-27T00:33:52.343Z,20.87
2018-12-27T00:36:21.265Z,29.90
2018-12-27T00:38:51.520Z,21.50
2018-12-27T00:41:20.294Z,22.83
2018-12-27T00:43:48.971Z,22.10
2018-12-27T00:46:17.577Z,22.07
2018-12-27T00:48:46.252Z,18.10
2018-12-27T00:51:14.857Z,21.50
2018-12-27T00:53:43.544Z,21.43
2018-12-27T00:56:12.172Z,22.07
2018-12-27T00:58:40.834Z,22.00
2018-12-27T01:01:09.565Z,24.33
2018-12-27T01:03:38.186Z,20.83
2018-12-27T01:06:06.800Z,17.03
2018-12-27T01:08:35.736Z,17.20
2018-12-27T01:11:04.407Z,18.93
2018-12-27T01:13:33.044Z,19.50
2018-12-27T01:16:02.386Z,27.40
2018-12-27T01:18:31.064Z,23.93
2018-12-27T01:20:59.695Z,19.50
2018-12-27T01:23:28.365Z,23.73
2018-12-27T01:25:56.976Z,19.47
2018-12-27T01:28:25.631Z,19.17
2018-12-27T01:30:54.275Z,16.80
2018-12-27T01:33:22.905Z,21.93
2018-12-27T01:35:51.710Z,23.30
2018-12-27T01:38:20.330Z,23.63
2018-12-27T01:40:48.955Z,18.07
2018-12-27T01:43:17.599Z,23.60
2018-12-27T01:45:46.250Z,19.62
2018-12-27T01:48:14.881Z,20.57
2018-12-27T01:50:43.572Z,19.40
2018-12-27T01:53:12.224Z,23.37
2018-12-27T01:55:41.467Z,22.77
2018-12-27T01:58:10.108Z,20.43
2018-12-27T02:00:39.103Z,21.12
2018-12-27T02:03:07.763Z,22.53
2018-12-27T02:05:36.588Z,16.07
2018-12-27T02:08:05.206Z,23.73
2018-12-27T02:10:33.832Z,18.27
2018-12-27T02:13:02.478Z,18.40
2018-12-27T02:15:31.126Z,20.13
2018-12-27T02:17:59.772Z,17.70
2018-12-27T02:20:28.419Z,20.20
2018-12-27T02:22:57.049Z,17.67
2018-12-27T02:25:25.697Z,16.20
2018-12-27T02:27:54.331Z,18.75
2018-12-27T02:30:22.950Z,17.30
2018-12-27T02:32:51.680Z,24.77
2018-12-27T02:35:20.288Z,15.10
2018-12-27T02:37:48.965Z,20.77
2018-12-27T02:40:17.652Z,17.57
2018-12-27T02:42:46.280Z,20.23
2018-12-27T02:45:14.920Z,22.07
2018-12-27T02:47:43.533Z,21.57
2018-12-27T02:50:12.158Z,17.48
2018-12-27T02:52:40.869Z,22.30
2018-12-27T02:55:09.503Z,25.07
2018-12-27T02:57:38.136Z,18.53
2018-12-27T03:00:06.752Z,18.73
2018-12-27T03:02:35.754Z,19.77
2018-12-27T03:05:04.370Z,18.13
2018-12-27T03:07:32.981Z,26.40
2018-12-27T03:10:01.795Z,20.20
2018-12-27T03:12:30.478Z,21.67
2018-12-27T03:14:59.160Z,16.70
2018-12-27T03:17:27.824Z,20.60
2018-12-27T03:19:56.469Z,24.23
2018-12-27T03:22:25.103Z,20.60
2018-12-27T03:24:53.780Z,17.70
2018-12-27T03:27:22.482Z,23.70
2018-12-27T03:29:51.167Z,20.07
2018-12-27T03:32:19.832Z,15.90
2018-12-27T03:34:48.565Z,21.53
2018-12-27T03:37:17.301Z,25.27
2018-12-27T03:39:46.047Z,20.17
2018-12-27T03:42:15.010Z,19.30
2018-12-27T03:44:43.641Z,18.40
2018-12-27T03:47:12.253Z,14.77
2018-12-27T03:49:42.090Z,16.80
2018-12-27T03:52:10.801Z,13.27
2018-12-27T03:54:39.491Z,18.83
2018-12-27T03:57:08.138Z,12.67
2018-12-27T03:59:36.748Z,12.67
2018-12-27T04:02:05.428Z,15.50
2018-12-27T04:04:34.148Z,10.33
2018-12-27T04:07:02.765Z,17.23
2018-12-27T04:09:31.409Z,18.63
2018-12-27T04:12:00.201Z,14.20
2018-12-27T04:14:28.914Z,13.30
2018-12-27T04:16:57.446Z,14.03
2018-12-27T04:19:26.265Z,9.80
2018-12-27T04:21:54.814Z,13.90
2018-12-27T04:24:23.777Z,11.17
2018-12-27T04:26:52.284Z,12.10
2018-12-27T04:29:20.752Z,13.10
2018-12-27T04:31:49.784Z,11.83
2018-12-27T04:34:18.591Z,9.97
2018-12-27T04:36:47.402Z,13.10
2018-12-27T04:39:16.186Z,14.63
2018-12-27T04:41:44.732Z,11.97
2018-12-27T04:44:13.471Z,12.73
2018-12-27T04:46:42.392Z,12.23
2018-12-27T04:49:10.853Z,13.10
2018-12-27T04:51:39.315Z,11.93
2018-12-27T04:54:08.143Z,11.20
2018-12-27T04:56:36.608Z,14.13
2018-12-27T04:59:05.075Z,9.77
2018-12-27T05:01:33.795Z,15.30
2018-12-27T05:04:02.249Z,9.93
2018-12-27T05:06:30.725Z,11.13
2018-12-27T05:08:59.554Z,19.20
2018-12-27T05:11:28.023Z,16.17
2018-12-27T05:13:58.193Z,10.50
2018-12-27T05:16:26.805Z,13.83
2018-12-27T05:18:55.280Z,11.30
2018-12-27T05:21:23.752Z,12.57
2018-12-27T05:23:52.274Z,11.07
2018-12-27T05:26:20.730Z,11.77
2018-12-27T05:28:49.272Z,10.90
2018-12-27T05:31:17.851Z,12.90
2018-12-27T05:33:46.379Z,10.70
2018-12-27T05:36:15.170Z,14.43
2018-12-27T05:38:43.617Z,10.60
2018-12-27T05:41:12.079Z,10.70
2018-12-27T05:43:40.575Z,13.30
2018-12-27T05:46:09.081Z,10.53
2018-12-27T05:48:37.605Z,10.40
2018-12-27T05:51:06.075Z,12.03
2018-12-27T05:53:34.554Z,8.13
2018-12-27T05:56:03.043Z,9.90
2018-12-27T05:58:31.504Z,9.40
2018-12-27T06:00:59.972Z,9.13
2018-12-27T06:03:28.451Z,9.37
2018-12-27T06:05:56.914Z,11.73
2018-12-27T06:08:25.670Z,10.40
2018-12-27T06:10:54.139Z,11.00
2018-12-27T06:13:22.600Z,9.30
2018-12-27T06:15:51.108Z,12.37
2018-12-27T06:18:19.666Z,11.27
2018-12-27T06:20:48.138Z,7.10
2018-12-27T06:23:16.636Z,8.20
2018-12-27T06:25:45.219Z,12.13
2018-12-27T06:28:13.688Z,11.90
2018-12-27T06:30:42.247Z,8.90
2018-12-27T06:33:11.175Z,7.55
2018-12-27T06:35:39.687Z,9.98
2018-12-27T06:40:35.579Z,8.70
2018-12-27T06:43:04.057Z,8.70
2018-12-27T06:45:32.630Z,10.00
2018-12-27T06:48:01.128Z,13.33
2018-12-27T06:50:29.596Z,10.17
2018-12-27T06:52:58.059Z,10.43
2018-12-27T06:55:26.557Z,11.80
2018-12-27T06:57:55.024Z,7.50
2018-12-27T07:00:23.506Z,12.37
2018-12-27T07:02:51.957Z,8.00
2018-12-27T07:05:20.449Z,7.03
2018-12-27T07:07:48.923Z,11.28
2018-12-27T07:10:17.425Z,9.20
2018-12-27T07:12:45.883Z,5.50
2018-12-27T07:15:14.365Z,5.27
2018-12-27T07:17:44.011Z,6.87
2018-12-27T07:20:12.465Z,9.97
2018-12-27T07:22:40.959Z,8.63
2018-12-27T07:25:09.473Z,8.90
2018-12-27T07:27:38.024Z,6.57
2018-12-27T07:30:07.436Z,9.33
2018-12-27T07:32:36.200Z,6.93
2018-12-27T07:35:05.001Z,8.90
2018-12-27T07:37:33.532Z,7.37
2018-12-27T07:40:02.026Z,10.27
2018-12-27T07:42:30.488Z,9.17
2018-12-27T07:44:58.956Z,8.83
2018-12-27T07:47:27.455Z,14.97
2018-12-27T07:49:56.267Z,11.88
2018-12-27T07:52:24.805Z,12.90
2018-12-27T07:54:53.313Z,39.57
2018-12-27T07:57:21.805Z,23.77
2018-12-27T07:59:50.286Z,17.82
2018-12-27T08:02:18.815Z,16.40
2018-12-27T08:04:47.349Z,28.07
2018-12-27T08:07:15.843Z,13.20
2018-12-27T08:09:44.349Z,21.57
2018-12-27T08:12:12.837Z,18.43
2018-12-27T08:14:41.303Z,9.70
2018-12-27T08:17:09.763Z,11.00
2018-12-27T08:19:38.264Z,8.40
2018-12-27T08:22:06.773Z,9.50
2018-12-27T08:24:35.249Z,12.80
2018-12-27T08:27:03.826Z,17.30
2018-12-27T08:29:32.314Z,18.20
2018-12-27T08:32:00.819Z,12.67
2018-12-27T08:34:29.324Z,12.77
2018-12-27T08:36:57.797Z,12.73
2018-12-27T08:39:26.291Z,12.93
2018-12-27T08:41:54.865Z,13.70
2018-12-27T08:44:23.433Z,15.63
2018-12-27T08:46:51.930Z,10.57
2018-12-27T08:49:20.449Z,11.97
2018-12-27T08:51:49.025Z,9.67
2018-12-27T08:54:17.554Z,11.53
2018-12-27T08:56:46.057Z,11.80
2018-12-27T08:59:14.538Z,11.40
2018-12-27T09:01:43.101Z,10.33
2018-12-27T09:04:11.549Z,10.27
2018-12-27T09:06:40.215Z,12.40
2018-12-27T09:09:08.689Z,8.60
2018-12-27T09:11:37.245Z,10.30
2018-12-27T09:14:05.779Z,7.63
2018-12-27T09:16:34.231Z,9.30
2018-12-27T09:19:02.720Z,11.80
2018-12-27T09:21:31.218Z,9.47
2018-12-27T09:23:59.676Z,9.58
2018-12-27T09:26:28.230Z,6.03
2018-12-27T09:28:56.720Z,12.00
2018-12-27T09:31:25.212Z,10.28
2018-12-27T09:33:53.766Z,8.28
2018-12-27T09:36:22.293Z,9.63
2018-12-27T09:38:50.940Z,12.40
2018-12-27T09:41:19.413Z,7.30
2018-12-27T09:43:47.888Z,11.83
2018-12-27T09:46:16.382Z,7.70
2018-12-27T09:48:45.289Z,6.40
2018-12-27T09:51:13.767Z,7.30
2018-12-27T09:53:42.235Z,5.60
2018-12-27T09:56:10.757Z,12.00
2018-12-27T09:58:39.241Z,8.90
2018-12-27T10:01:07.714Z,12.53
2018-12-27T10:03:36.489Z,7.40
2018-12-27T10:06:05.013Z,7.80
2018-12-27T10:08:33.494Z,9.73
2018-12-27T10:11:02.046Z,9.17
2018-12-27T10:13:30.507Z,7.37
2018-12-27T10:15:58.970Z,5.97
2018-12-27T10:18:27.594Z,5.50
2018-12-27T10:20:56.089Z,6.07
2018-12-27T10:23:24.547Z,6.50
2018-12-27T10:25:53.013Z,7.27
2018-12-27T10:28:21.564Z,6.63
2018-12-27T10:30:50.075Z,6.90
2018-12-27T10:33:18.598Z,6.13
2018-12-27T10:35:47.305Z,6.13
2018-12-27T10:38:15.751Z,8.33
2018-12-27T10:40:44.244Z,8.30
2018-12-27T10:43:12.726Z,12.80
2018-12-27T10:45:41.282Z,24.37
2018-12-27T10:48:09.734Z,7.87
2018-12-27T10:50:38.240Z,6.57
2018-12-27T10:53:06.763Z,3.87
2018-12-27T10:55:35.299Z,7.07
2018-12-27T10:58:03.847Z,3.93
2018-12-27T11:00:32.396Z,5.47
2018-12-27T11:03:00.910Z,5.97
2018-12-27T11:05:29.375Z,6.53
2018-12-27T11:07:57.877Z,5.17
2018-12-27T11:10:26.347Z,5.70
2018-12-27T11:12:54.840Z,6.70
2018-12-27T11:15:23.405Z,11.50
2018-12-27T11:17:51.938Z,14.63
2018-12-27T11:20:20.437Z,14.77
2018-12-27T11:22:48.969Z,9.07
2018-12-27T11:25:17.598Z,6.57
2018-12-27T11:27:46.547Z,8.33
2018-12-27T11:30:15.062Z,6.47
2018-12-27T11:32:43.599Z,14.93
2018-12-27T11:35:12.396Z,23.47
2018-12-27T11:37:41.053Z,15.17
2018-12-27T11:40:09.520Z,11.07
2018-12-27T11:42:38.034Z,7.27
2018-12-27T11:45:07.321Z,2.10
2018-12-27T11:47:35.791Z,3.40
2018-12-27T11:50:04.931Z,3.50
2018-12-27T11:52:33.511Z,3.00
2018-12-27T11:55:02.056Z,3.50
2018-12-27T11:57:30.567Z,4.10
2018-12-27T11:59:59.025Z,4.13
2018-12-27T12:02:31.136Z,4.93
2018-12-27T12:04:57.909Z,4.17
2018-12-27T12:07:26.472Z,2.90
2018-12-27T12:09:55.015Z,2.17
2018-12-27T12:12:23.585Z,2.80
2018-12-27T12:14:52.055Z,3.70
2018-12-27T12:17:20.515Z,3.93
2018-12-27T12:19:49.095Z,4.33
2018-12-27T12:22:17.626Z,8.65
2018-12-27T12:24:46.239Z,3.30
2018-12-27T12:27:14.768Z,5.40
2018-12-27T12:29:43.332Z,4.43
2018-12-27T12:32:12.015Z,5.47
2018-12-27T12:34:40.843Z,3.77
2018-12-27T12:37:13.978Z,5.70
2018-12-27T12:39:39.792Z,4.13
2018-12-27T12:42:08.240Z,2.97
2018-12-27T12:44:36.701Z,4.00
2018-12-27T12:47:05.618Z,2.80
2018-12-27T12:49:34.144Z,3.93
2018-12-27T12:52:02.626Z,3.75
2018-12-27T12:54:31.172Z,7.03
2018-12-27T12:56:59.634Z,2.40
2018-12-27T12:59:28.082Z,3.20
2018-12-27T13:01:56.565Z,7.70
2018-12-27T13:04:25.038Z,4.40
2018-12-27T13:06:53.609Z,3.93
2018-12-27T13:09:22.059Z,3.50
2018-12-27T13:11:50.576Z,4.70
2018-12-27T13:14:19.083Z,3.93
2018-12-27T13:16:47.554Z,3.93
2018-12-27T13:19:16.045Z,5.05
2018-12-27T13:21:44.499Z,2.93
2018-12-27T13:24:12.971Z,5.70
2018-12-27T13:26:41.543Z,4.15
2018-12-27T13:29:09.998Z,2.75
2018-12-27T13:31:38.457Z,3.40
2018-12-27T13:34:06.947Z,2.10
2018-12-27T13:36:35.462Z,3.60
2018-12-27T13:39:05.666Z,5.00
2018-12-27T13:41:34.243Z,3.07
2018-12-27T13:44:02.722Z,5.40
2018-12-27T13:46:31.276Z,2.47
2018-12-27T13:48:59.782Z,2.60
2018-12-27T13:51:28.304Z,3.10
2018-12-27T13:53:56.753Z,2.00
2018-12-27T13:56:25.258Z,2.57
2018-12-27T13:58:53.790Z,70.73
2018-12-27T14:01:22.247Z,17.37
2018-12-27T14:03:50.756Z,2.00
2018-12-27T14:06:19.310Z,3.37
2018-12-27T14:08:47.860Z,2.70
2018-12-27T14:11:16.376Z,2.00
2018-12-27T14:13:45.295Z,3.10
2018-12-27T14:16:13.914Z,4.43
2018-12-27T14:18:42.402Z,2.73
2018-12-27T14:21:11.720Z,2.33
2018-12-27T14:23:40.210Z,4.63
2018-12-27T14:26:08.671Z,2.95
2018-12-27T14:28:40.033Z,5.13
2018-12-27T14:31:08.682Z,5.42
2018-12-27T14:33:37.158Z,5.55
2018-12-27T14:36:05.615Z,4.47
2018-12-27T14:38:34.095Z,6.00
2018-12-27T14:41:02.601Z,9.40
2018-12-27T14:43:31.801Z,12.45
2018-12-27T14:46:00.316Z,90.20
2018-12-27T14:48:28.774Z,13.10
2018-12-27T14:50:57.270Z,11.93
2018-12-27T14:53:25.822Z,10.17
2018-12-27T14:55:54.964Z,10.30
2018-12-27T14:58:24.176Z,7.87
2018-12-27T15:00:52.721Z,7.83
2018-12-27T15:03:21.229Z,8.93
2018-12-27T15:05:49.784Z,4.63
2018-12-27T15:08:18.226Z,8.77
2018-12-27T15:10:46.715Z,15.00
2018-12-27T15:13:15.203Z,19.03
2018-12-27T15:15:43.668Z,88.17
2018-12-27T15:18:12.183Z,39.30
2018-12-27T15:20:40.672Z,10.00
2018-12-27T15:23:09.133Z,15.20
2018-12-27T15:25:37.589Z,6.10
2018-12-27T15:28:06.083Z,21.17
2018-12-27T15:30:34.591Z,14.60
2018-12-27T15:33:03.067Z,13.18
2018-12-27T15:35:31.597Z,15.83
2018-12-27T15:38:00.337Z,13.13
2018-12-27T15:40:28.798Z,15.98
2018-12-27T15:42:57.260Z,17.63
2018-12-27T15:45:25.763Z,14.23
2018-12-27T15:47:54.281Z,17.60
2018-12-27T15:50:22.744Z,15.37
2018-12-27T15:52:51.252Z,47.60
2018-12-27T15:55:19.752Z,49.53
2018-12-27T15:57:48.224Z,42.07
2018-12-27T16:00:16.769Z,26.40
2018-12-27T16:02:45.341Z,11.40
2018-12-27T16:05:13.792Z,15.30
2018-12-27T16:07:42.284Z,19.60
2018-12-27T16:10:10.735Z,21.57
2018-12-27T16:12:39.251Z,24.77
2018-12-27T16:15:07.792Z,16.77
2018-12-27T16:17:36.282Z,28.30
2018-12-27T16:20:05.592Z,19.37
2018-12-27T16:22:34.199Z,20.60
2018-12-27T16:25:02.744Z,24.60
2018-12-27T16:27:31.411Z,19.87
2018-12-27T16:30:00.382Z,40.50
2018-12-27T16:32:28.899Z,60.43
2018-12-27T16:34:57.376Z,74.60
2018-12-27T16:37:25.909Z,68.72
2018-12-27T16:39:54.366Z,61.20
2018-12-27T16:42:22.825Z,52.75
2018-12-27T16:44:51.377Z,54.90
2018-12-27T16:47:19.839Z,54.70
2018-12-27T16:49:48.391Z,33.07
2018-12-27T16:52:16.869Z,21.47
2018-12-27T16:54:45.349Z,23.90
2018-12-27T16:57:19.717Z,18.00
2018-12-27T16:59:44.355Z,17.97
2018-12-27T17:02:13.521Z,28.73
2018-12-27T17:04:42.142Z,20.10
2018-12-27T17:07:16.091Z,29.93
2018-12-27T17:09:41.481Z,33.23
2018-12-27T17:12:10.057Z,29.97
2018-12-27T17:14:38.589Z,43.57
2018-12-27T17:17:07.354Z,30.07
2018-12-27T17:19:37.544Z,26.07
2018-12-27T17:22:06.081Z,25.40
2018-12-27T17:24:34.659Z,43.87
2018-12-27T17:27:03.111Z,46.97
2018-12-27T17:29:31.626Z,31.23
2018-12-27T17:32:00.093Z,26.60
2018-12-27T17:34:28.602Z,22.32
2018-12-27T17:36:57.061Z,16.63
2018-12-27T17:39:25.559Z,16.90
2018-12-27T17:41:54.005Z,15.10
2018-12-27T17:44:22.534Z,12.82
2018-12-27T17:46:51.034Z,16.57
2018-12-27T17:49:19.544Z,18.30
2018-12-27T17:51:48.089Z,13.67
2018-12-27T17:54:16.598Z,13.93
2018-12-27T17:56:45.065Z,14.53
2018-12-27T17:59:13.806Z,15.45
2018-12-27T18:01:42.317Z,10.33
2018-12-27T18:04:10.776Z,11.87
2018-12-27T18:06:39.241Z,13.83
2018-12-27T18:09:08.059Z,13.40
2018-12-27T18:11:36.513Z,14.50
2018-12-27T18:14:04.976Z,14.47
2018-12-27T18:16:33.473Z,14.40
2018-12-27T18:19:01.979Z,25.17
2018-12-27T18:21:30.510Z,37.17
2018-12-27T18:23:59.026Z,66.40
2018-12-27T18:26:27.587Z,47.80
2018-12-27T18:28:56.049Z,120.27
2018-12-27T18:31:24.514Z,182.93
2018-12-27T18:33:53.045Z,236.53
2018-12-27T18:36:21.546Z,298.37
2018-12-27T18:38:50.804Z,75.37
2018-12-27T18:41:19.588Z,45.33
2018-12-27T18:43:48.124Z,38.50
2018-12-27T18:46:16.578Z,30.07
2018-12-27T18:48:45.161Z,28.93
2018-12-27T18:51:14.066Z,28.87
2018-12-27T18:53:42.542Z,38.57
2018-12-27T18:56:11.243Z,28.57
2018-12-27T18:58:39.792Z,30.33
2018-12-27T19:01:08.260Z,29.10
2018-12-27T19:03:36.763Z,26.60
2018-12-27T19:06:05.291Z,47.90
2018-12-27T19:08:33.893Z,25.63
2018-12-27T19:11:39.088Z,24.57
2018-12-27T19:14:07.555Z,39.83
2018-12-27T19:16:36.093Z,36.27
2018-12-27T19:19:04.606Z,24.00
2018-12-27T19:21:35.519Z,19.97
2018-12-27T19:24:04.109Z,23.10
2018-12-27T19:26:32.593Z,20.03
2018-12-27T19:29:01.097Z,58.60
2018-12-27T19:31:29.623Z,84.60
2018-12-27T19:33:58.120Z,90.17
2018-12-27T19:36:26.618Z,224.02
2018-12-27T19:38:55.116Z,352.13
2018-12-27T19:41:23.651Z,277.03
2018-12-27T19:43:52.155Z,199.90
2018-12-27T19:46:20.633Z,418.50
2018-12-27T19:48:49.106Z,433.03
2018-12-27T19:51:17.606Z,248.30
2018-12-27T19:53:46.073Z,200.50
2018-12-27T19:56:14.530Z,70.30
2018-12-27T19:58:43.123Z,295.00
2018-12-27T20:01:12.339Z,368.23
2018-12-27T20:03:40.873Z,120.70
2018-12-27T20:06:09.511Z,38.02
2018-12-27T20:08:37.989Z,94.43
2018-12-27T20:11:06.629Z,121.80
2018-12-27T20:13:35.110Z,265.20
2018-12-27T20:16:03.592Z,238.13
2018-12-27T20:18:32.169Z,309.67
2018-12-27T20:21:00.689Z,295.80
2018-12-27T20:23:29.162Z,207.90
2018-12-27T20:25:57.665Z,296.57
2018-12-27T20:28:26.123Z,237.00
2018-12-27T20:30:54.650Z,342.63
2018-12-27T20:33:23.224Z,175.50
2018-12-27T20:35:51.773Z,161.83
2018-12-27T20:38:20.242Z,213.20
2018-12-27T20:40:48.749Z,143.23
2018-12-27T20:43:17.393Z,93.47
2018-12-27T20:45:45.924Z,87.27
2018-12-27T20:48:14.665Z,127.00
2018-12-27T20:50:43.443Z,190.17
2018-12-27T20:53:11.939Z,254.40
2018-12-27T20:55:40.512Z,351.07
2018-12-27T20:58:09.162Z,105.27
2018-12-27T21:00:37.661Z,167.03
2018-12-27T21:03:06.195Z,205.87
2018-12-27T21:05:34.703Z,138.27
2018-12-27T21:08:03.253Z,62.57
2018-12-27T21:10:31.825Z,50.67
2018-12-27T21:13:00.294Z,36.17
2018-12-27T21:15:28.766Z,33.37
2018-12-27T21:17:57.474Z,32.80
2018-12-27T21:20:26.189Z,30.27
2018-12-27T21:22:54.666Z,27.33
2018-12-27T21:25:23.396Z,33.15
2018-12-27T21:27:51.936Z,31.33
2018-12-27T21:30:20.414Z,28.45
2018-12-27T21:32:49.058Z,24.80
2018-12-27T21:35:17.580Z,23.23
2018-12-27T21:37:46.041Z,21.07
2018-12-27T21:40:14.925Z,49.35
2018-12-27T21:42:43.431Z,26.80
2018-12-27T21:45:12.490Z,20.85
2018-12-27T21:47:41.027Z,29.53
2018-12-27T21:50:09.592Z,27.13
2018-12-27T21:52:38.050Z,25.97
2018-12-27T21:55:06.503Z,20.30
2018-12-27T21:57:35.003Z,20.33
2018-12-27T22:00:03.922Z,16.60
2018-12-27T22:02:32.811Z,18.73
2018-12-27T22:05:01.384Z,17.77
2018-12-27T22:07:29.915Z,19.47
2018-12-27T22:09:58.679Z,26.83
2018-12-27T22:12:27.242Z,30.53
2018-12-27T22:14:55.695Z,29.87
2018-12-27T22:17:24.203Z,23.20
2018-12-27T22:19:52.727Z,24.77
2018-12-27T22:22:21.232Z,19.80
2018-12-27T22:24:49.709Z,14.20
2018-12-27T22:27:18.409Z,12.77
2018-12-27T22:29:46.895Z,12.83
2018-12-27T22:32:15.439Z,18.70
2018-12-27T22:34:43.955Z,11.30
2018-12-27T22:37:13.321Z,20.27
2018-12-27T22:39:41.829Z,13.80
2018-12-27T22:42:10.368Z,18.47
2018-12-27T22:44:38.848Z,13.17
2018-12-27T22:47:07.492Z,17.00
2018-12-27T22:49:35.962Z,15.23
2018-12-27T22:52:04.425Z,15.17
2018-12-27T22:54:32.935Z,25.20
2018-12-27T22:57:01.500Z,23.23
2018-12-27T22:59:30.093Z,15.37
2018-12-27T23:01:58.635Z,13.93
2018-12-27T23:04:27.526Z,19.52
2018-12-27T23:06:56.055Z,17.00
2018-12-27T23:09:24.572Z,18.90
2018-12-27T23:11:53.173Z,14.00
2018-12-27T23:14:21.769Z,12.13
2018-12-27T23:16:50.331Z,17.47
2018-12-27T23:19:18.947Z,22.23
2018-12-27T23:21:47.829Z,23.93
2018-12-27T23:24:16.294Z,21.97
2018-12-27T23:26:44.755Z,18.17
2018-12-27T23:29:13.235Z,16.37
2018-12-27T23:31:41.730Z,21.80
2018-12-27T23:34:10.258Z,29.27
2018-12-27T23:36:38.850Z,39.80
2018-12-27T23:39:07.954Z,24.07
2018-12-27T23:41:36.495Z,16.37
2018-12-27T23:44:05.059Z,13.50
2018-12-27T23:46:33.536Z,12.43
2018-12-27T23:49:02.086Z,14.73
2018-12-27T23:51:30.661Z,15.40
2018-12-27T23:53:59.126Z,11.77
2018-12-27T23:56:27.615Z,16.90
2018-12-27T23:58:56.099Z,18.32
